Time;durP1;ratioP1;P1;durP2;ratioP2;P2;SDS_P1;SDS_P2;PMS_P1;PMS_P2;Temp;Humidity;BMP_temperature;BMP_pressure;BME280_temperature;BME280_humidity;BME280_pressure;Samples;Min_cycle;Max_cycle;Signal;HPM_P1;HPM_P2
2022/11/11 00:00:16;;;;;;;30.40;28.23;;;7.00;99.90;;;;;;4914509;29;20465;-76
2022/11/11 00:02:42;;;;;;;29.23;26.63;;;7.00;99.90;;;;;;4914078;29;20481;-76
2022/11/11 00:05:09;;;;;;;27.80;25.60;;;7.10;99.90;;;;;;4913962;29;20493;-76
2022/11/11 00:07:36;;;;;;;30.13;27.47;;;7.10;99.90;;;;;;4914174;29;20486;-76
2022/11/11 00:10:03;;;;;;;29.10;26.87;;;7.00;99.90;;;;;;4914148;29;20997;-77
2022/11/11 00:12:31;;;;;;;28.97;26.60;;;7.00;99.90;;;;;;4914144;29;20454;-76
2022/11/11 00:14:58;;;;;;;27.83;25.60;;;7.00;99.90;;;;;;4914235;29;20457;-77
2022/11/11 00:25:38;;;;;;;24.17;22.67;;;6.80;99.90;;;;;;4913966;29;20441;-76
2022/11/11 00:28:06;;;;;;;25.27;23.37;;;6.70;99.90;;;;;;4913737;29;20817;-76
2022/11/11 00:30:33;;;;;;;26.83;24.70;;;6.70;99.90;;;;;;4913753;29;20473;-75
2022/11/11 00:33:00;;;;;;;28.60;26.50;;;6.70;99.90;;;;;;4913622;29;20450;-76
2022/11/11 00:38:44;;;;;;;28.23;25.63;;;6.70;99.90;;;;;;4913970;29;20806;-76
2022/11/11 00:41:01;;;;;;;30.43;27.90;;;6.70;99.90;;;;;;4913474;29;20505;-76
2022/11/11 00:43:29;;;;;;;30.00;27.07;;;6.70;99.90;;;;;;4913605;29;20457;-76
2022/11/11 00:50:57;;;;;;;30.07;27.67;;;6.70;99.90;;;;;;4913582;29;20765;-76
2022/11/11 00:51:28;;;;;;;29.00;26.70;;;6.70;99.90;;;;;;4913555;29;20441;-76
2022/11/11 00:53:55;;;;;;;27.40;25.40;;;6.70;99.90;;;;;;4913315;29;20465;-76
2022/11/11 00:56:23;;;;;;;28.63;26.40;;;6.70;99.90;;;;;;4912959;29;20497;-75
2022/11/11 06:26:27;;;;;;;37.77;34.87;;;4.60;99.90;;;;;;5549438;23;20997;-74
2022/11/11 06:28:56;;;;;;;35.30;32.83;;;4.60;99.90;;;;;;4941346;29;20942;-73
2022/11/11 06:31:24;;;;;;;36.77;33.70;;;4.60;99.90;;;;;;4953982;29;20446;-73
2022/11/11 06:33:51;;;;;;;36.03;33.43;;;4.60;99.90;;;;;;4953227;28;20463;-74
2022/11/11 06:36:20;;;;;;;33.73;30.90;;;4.60;99.90;;;;;;4953607;29;21002;-74
2022/11/11 06:38:48;;;;;;;34.43;31.70;;;5.20;99.90;;;;;;4953691;29;20449;-74
2022/11/11 06:41:15;;;;;;;34.00;31.30;;;4.70;99.90;;;;;;4953900;29;20456;-75
2022/11/11 06:43:43;;;;;;;34.80;31.97;;;4.70;99.90;;;;;;4953645;29;20448;-76
2022/11/11 06:46:22;;;;;;;36.87;33.87;;;4.70;99.90;;;;;;4953674;29;20455;-76
2022/11/11 06:48:49;;;;;;;32.10;29.70;;;4.70;99.90;;;;;;4953521;29;20454;-76
2022/11/11 06:51:17;;;;;;;33.30;30.90;;;4.70;99.90;;;;;;4953704;29;20440;-74
2022/11/11 06:53:44;;;;;;;32.10;29.50;;;4.70;99.90;;;;;;4953944;29;20783;-74
2022/11/11 06:56:11;;;;;;;32.77;30.57;;;4.70;99.90;;;;;;4954076;29;20492;-73
2022/11/11 06:58:39;;;;;;;34.50;31.30;;;4.80;99.90;;;;;;4954191;29;20543;-74
2022/11/11 07:01:08;;;;;;;31.40;28.73;;;4.80;99.90;;;;;;4954000;29;20785;-75
2022/11/11 07:03:36;;;;;;;34.73;31.83;;;4.90;99.90;;;;;;4954114;29;20473;-76
2022/11/11 07:06:04;;;;;;;33.67;30.97;;;4.90;99.90;;;;;;4954098;29;20464;-76
2022/11/11 07:08:32;;;;;;;35.50;32.40;;;4.90;99.90;;;;;;4954066;29;20940;-76
2022/11/11 07:10:58;;;;;;;34.50;31.67;;;4.90;99.90;;;;;;4954075;29;20466;-75
2022/11/11 07:13:25;;;;;;;34.13;31.43;;;4.90;99.90;;;;;;4953588;29;20541;-75
2022/11/11 07:15:52;;;;;;;35.10;32.37;;;5.00;99.90;;;;;;4953577;29;20486;-74
2022/11/11 07:18:20;;;;;;;33.17;30.80;;;5.00;99.90;;;;;;4953868;29;20450;-74
2022/11/11 07:20:47;;;;;;;31.63;29.43;;;4.90;99.90;;;;;;4953755;29;20466;-75
2022/11/11 07:23:14;;;;;;;33.00;30.50;;;4.90;99.90;;;;;;4953985;29;20454;-77
2022/11/11 07:25:41;;;;;;;33.07;30.47;;;4.90;99.90;;;;;;4953434;29;20466;-76
2022/11/11 07:28:08;;;;;;;32.63;30.23;;;4.90;99.90;;;;;;4951457;29;20973;-75
2022/11/11 07:30:34;;;;;;;32.90;30.40;;;4.90;99.90;;;;;;4935909;29;20460;-75
2022/11/11 07:33:24;;;;;;;35.43;32.47;;;5.00;99.90;;;;;;4933922;29;20455;-75
2022/11/11 07:35:51;;;;;;;32.70;30.43;;;5.10;99.90;;;;;;4931139;29;20859;-76
2022/11/11 07:38:18;;;;;;;30.73;28.43;;;5.10;99.90;;;;;;4933148;29;20916;-76
2022/11/11 07:40:45;;;;;;;29.50;27.23;;;5.10;99.90;;;;;;4932247;29;20489;-76
2022/11/11 07:43:11;;;;;;;29.40;27.43;;;5.20;99.90;;;;;;4933136;29;20459;-76
2022/11/11 07:45:38;;;;;;;27.63;25.97;;;5.30;99.90;;;;;;4932501;29;20448;-76
2022/11/11 07:48:05;;;;;;;27.90;25.90;;;5.50;99.90;;;;;;4933398;29;20808;-76
2022/11/11 07:50:33;;;;;;;29.57;27.17;;;5.50;99.90;;;;;;4933520;29;20468;-76
2022/11/11 07:53:00;;;;;;;30.00;27.57;;;5.60;99.90;;;;;;4933229;29;20821;-77
2022/11/11 07:55:27;;;;;;;28.63;26.27;;;5.70;99.90;;;;;;4931318;29;20486;-77
2022/11/11 07:57:53;;;;;;;26.53;24.73;;;5.80;99.90;;;;;;4930843;29;20464;-77
2022/11/11 08:00:20;;;;;;;26.90;24.80;;;5.90;99.90;;;;;;4932990;29;21148;-78
2022/11/11 08:02:47;;;;;;;25.83;23.93;;;6.00;99.90;;;;;;4933093;29;20466;-77
2022/11/11 08:05:14;;;;;;;26.10;24.27;;;6.00;99.90;;;;;;4933161;29;20483;-77
2022/11/11 08:07:43;;;;;;;26.40;24.43;;;6.00;99.90;;;;;;4932893;29;20460;-78
2022/11/11 08:10:10;;;;;;;23.93;22.03;;;6.00;99.90;;;;;;4932612;29;20453;-78
2022/11/11 08:15:22;;;;;;;22.83;20.90;;;6.20;99.90;;;;;;4932678;29;20603;-78
2022/11/11 08:17:49;;;;;;;21.87;20.20;;;6.40;99.90;;;;;;4932544;29;20830;-78
2022/11/11 08:20:16;;;;;;;20.73;19.33;;;6.50;99.90;;;;;;4933038;29;20462;-78
2022/11/11 08:22:44;;;;;;;20.50;19.03;;;6.70;99.90;;;;;;4932805;29;20453;-78
2022/11/11 08:25:13;;;;;;;25.80;23.60;;;6.70;99.90;;;;;;4932562;29;20813;-78
2022/11/11 08:27:40;;;;;;;22.17;20.60;;;6.60;99.90;;;;;;4932251;29;20555;-78
2022/11/11 08:30:08;;;;;;;21.00;19.60;;;6.70;99.90;;;;;;4932926;29;20449;-78
2022/11/11 08:32:35;;;;;;;22.47;20.83;;;6.90;99.90;;;;;;4932510;29;20468;-78
2022/11/11 08:35:03;;;;;;;23.83;22.33;;;7.00;99.90;;;;;;4932275;29;20463;-79
2022/11/11 08:37:30;;;;;;;22.50;21.00;;;7.10;99.90;;;;;;4932623;29;20466;-78
2022/11/11 08:39:58;;;;;;;20.50;19.00;;;7.20;99.90;;;;;;4923566;29;20469;-79
2022/11/11 08:42:26;;;;;;;19.87;18.37;;;7.30;99.90;;;;;;4918513;29;20793;-79
2022/11/11 08:44:53;;;;;;;19.67;18.37;;;7.30;99.90;;;;;;4932886;29;20705;-78
2022/11/11 08:47:21;;;;;;;21.33;19.83;;;7.30;99.90;;;;;;4923105;29;20446;-79
2022/11/11 08:49:49;;;;;;;23.10;21.03;;;7.40;99.90;;;;;;4913374;29;20464;-79
2022/11/11 08:52:16;;;;;;;19.80;18.70;;;7.40;99.90;;;;;;4913396;29;20473;-79
2022/11/11 08:54:43;;;;;;;19.83;18.60;;;7.60;99.90;;;;;;4914158;29;20447;-80
2022/11/11 08:57:11;;;;;;;21.10;19.50;;;7.60;99.90;;;;;;4932106;29;20489;-81
2022/11/11 08:59:38;;;;;;;19.03;17.87;;;7.80;99.90;;;;;;4931506;29;20449;-80
2022/11/11 09:02:05;;;;;;;18.40;17.27;;;8.10;99.90;;;;;;4932183;29;20449;-81
2022/11/11 09:04:31;;;;;;;20.10;18.40;;;8.30;99.90;;;;;;4931918;29;20943;-82
2022/11/11 09:06:58;;;;;;;19.20;17.90;;;8.70;99.90;;;;;;4931920;29;20449;-81
2022/11/11 09:09:25;;;;;;;18.90;17.47;;;9.30;99.90;;;;;;4931468;29;20604;-80
2022/11/11 09:11:52;;;;;;;21.70;20.10;;;9.60;99.90;;;;;;4930346;29;20779;-80
2022/11/11 09:14:20;;;;;;;24.03;22.23;;;10.20;99.90;;;;;;4912632;29;20840;-80
2022/11/11 09:16:46;;;;;;;20.73;19.23;;;10.60;99.90;;;;;;4913656;29;20860;-80
2022/11/11 09:19:13;;;;;;;19.83;18.20;;;10.90;99.90;;;;;;4912270;29;20454;-79
2022/11/11 09:21:40;;;;;;;21.17;19.70;;;11.10;99.90;;;;;;4913013;29;20836;-84
2022/11/11 09:24:07;;;;;;;19.97;18.50;;;11.20;99.90;;;;;;4912872;29;20626;-80
2022/11/11 09:26:34;;;;;;;18.13;17.03;;;11.10;99.90;;;;;;4912081;29;20505;-82
2022/11/11 09:29:00;;;;;;;20.37;18.90;;;10.90;99.90;;;;;;4913106;29;20459;-79
2022/11/11 09:31:28;;;;;;;18.30;17.00;;;11.00;99.90;;;;;;4913004;29;20455;-81
2022/11/11 09:33:55;;;;;;;18.80;17.30;;;11.10;99.90;;;;;;4910782;29;20450;-80
2022/11/11 09:36:22;;;;;;;19.77;18.10;;;11.20;99.90;;;;;;4912513;29;20513;-79
2022/11/11 09:38:49;;;;;;;20.37;18.97;;;11.30;99.90;;;;;;4912520;29;20793;-78
2022/11/11 09:41:20;;;;;;;17.03;15.57;;;11.80;99.90;;;;;;4911834;29;20460;-79
2022/11/11 09:43:53;;;;;;;17.20;15.90;;;11.90;99.90;;;;;;4912342;29;20455;-81
2022/11/11 09:46:35;;;;;;;32.87;30.27;;;12.00;99.90;;;;;;4915954;29;20442;-81
2022/11/11 09:49:27;;;;;;;25.53;23.63;;;12.60;99.90;;;;;;4931590;29;20792;-81
2022/11/11 09:52:02;;;;;;;21.10;19.50;;;12.60;99.90;;;;;;4931409;29;20453;-80
2022/11/11 09:54:34;;;;;;;20.40;18.87;;;12.70;99.90;;;;;;4931769;29;20962;-82
2022/11/11 09:57:14;;;;;;;19.17;17.50;;;12.90;99.90;;;;;;4931454;29;20489;-80
2022/11/11 09:59:46;;;;;;;16.63;15.63;;;13.10;99.90;;;;;;4931410;29;20817;-82
2022/11/11 10:02:22;;;;;;;17.23;15.87;;;13.20;99.90;;;;;;4931566;29;20454;-79
2022/11/11 10:04:57;;;;;;;18.47;16.40;;;12.80;99.90;;;;;;4931341;29;20457;-78
2022/11/11 10:07:30;;;;;;;22.53;16.53;;;12.80;99.90;;;;;;4931476;29;20453;-78
2022/11/11 10:10:04;;;;;;;17.37;16.27;;;13.10;99.90;;;;;;4934141;29;20825;-80
2022/11/11 10:12:39;;;;;;;17.20;16.20;;;13.20;99.90;;;;;;4935208;29;20467;-80
2022/11/11 10:15:12;;;;;;;16.43;15.43;;;13.20;99.90;;;;;;4934700;29;20611;-80
2022/11/11 10:17:50;;;;;;;16.33;15.40;;;13.00;99.90;;;;;;4934538;29;20524;-82
2022/11/11 10:20:23;;;;;;;17.40;16.10;;;13.10;99.90;;;;;;4934538;29;20967;-80
2022/11/11 10:22:53;;;;;;;16.53;15.50;;;13.00;99.90;;;;;;4935102;29;20900;-82
2022/11/11 10:25:22;;;;;;;16.20;15.20;;;13.00;99.90;;;;;;4934711;29;20473;-82
2022/11/11 10:27:52;;;;;;;16.40;15.30;;;13.00;99.90;;;;;;4934178;29;20481;-80
2022/11/11 10:30:22;;;;;;;16.17;15.27;;;13.10;99.90;;;;;;4932480;29;20452;-84
2022/11/11 10:32:56;;;;;;;15.50;14.70;;;13.30;99.90;;;;;;4936448;29;20449;-80
2022/11/11 10:35:25;;;;;;;13.87;13.17;;;13.40;99.90;;;;;;4936623;29;20782;-76
2022/11/11 10:38:04;;;;;;;17.00;16.10;;;13.50;99.90;;;;;;4936292;29;21184;-80
2022/11/11 10:40:37;;;;;;;16.20;15.30;;;13.90;99.90;;;;;;4937438;29;20461;-81
2022/11/11 10:43:04;;;;;;;17.20;16.30;;;14.20;99.90;;;;;;4944522;29;20536;-82
2022/11/11 10:45:40;;;;;;;16.43;15.30;;;15.00;99.90;;;;;;4935588;29;20446;-83
2022/11/11 10:48:12;;;;;;;16.83;15.73;;;15.40;99.90;;;;;;4917622;29;20866;-84
2022/11/11 10:50:43;;;;;;;15.20;14.40;;;15.40;99.90;;;;;;4916681;29;20450;-86
2022/11/11 10:53:17;;;;;;;17.03;15.77;;;15.30;99.90;;;;;;4916934;29;20457;-85
2022/11/11 10:55:49;;;;;;;16.80;15.63;;;15.20;99.90;;;;;;4916068;29;20458;-82
2022/11/11 10:58:24;;;;;;;15.60;14.73;;;14.90;99.90;;;;;;4916259;29;20883;-82
2022/11/11 11:00:54;;;;;;;14.93;13.93;;;15.00;99.90;;;;;;4915715;29;20853;-79
2022/11/11 11:03:26;;;;;;;15.90;14.93;;;15.20;99.90;;;;;;4915768;29;20452;-80
2022/11/11 11:05:58;;;;;;;15.27;14.47;;;15.60;99.90;;;;;;4915725;29;20724;-80
2022/11/11 11:08:29;;;;;;;16.83;15.50;;;15.80;99.90;;;;;;4915648;29;20461;-79
2022/11/11 11:10:58;;;;;;;15.70;14.40;;;16.10;99.90;;;;;;4915450;29;20443;-79
2022/11/11 11:13:34;;;;;;;16.87;15.90;;;16.30;99.90;;;;;;4915495;29;20454;-81
2022/11/11 11:16:06;;;;;;;16.63;15.53;;;16.60;99.90;;;;;;4915256;29;20497;-81
2022/11/11 11:18:34;;;;;;;16.40;15.50;;;16.80;99.90;;;;;;4915240;29;20493;-82
2022/11/11 11:21:03;;;;;;;16.33;15.40;;;16.40;99.90;;;;;;4912182;29;20980;-83
2022/11/11 11:23:41;;;;;;;17.53;16.37;;;16.40;99.90;;;;;;4915039;29;20454;-83
2022/11/11 11:26:09;;;;;;;17.27;15.60;;;15.80;99.90;;;;;;4914420;29;20485;-82
2022/11/11 11:28:53;;;;;;;17.07;15.87;;;15.50;99.90;;;;;;4914643;29;20558;-83
2022/11/11 11:31:34;;;;;;;16.57;15.57;;;15.10;99.90;;;;;;4914995;29;20945;-83
2022/11/11 11:34:03;;;;;;;18.43;16.90;;;15.00;99.90;;;;;;4914920;29;20454;-84
2022/11/11 11:36:29;;;;;;;17.63;16.60;;;15.30;99.90;;;;;;4915103;29;20509;-84
2022/11/11 11:38:56;;;;;;;17.57;16.50;;;15.40;99.90;;;;;;4913592;29;20468;-84
2022/11/11 11:41:37;;;;;;;17.83;16.30;;;15.90;99.90;;;;;;4914198;29;20852;-85
2022/11/11 11:44:04;;;;;;;16.03;14.80;;;15.70;99.90;;;;;;4914506;29;20799;-84
2022/11/11 11:46:36;;;;;;;15.97;14.97;;;15.80;99.90;;;;;;4914728;29;20944;-86
2022/11/11 11:49:22;;;;;;;17.23;16.00;;;15.90;99.90;;;;;;4914795;29;20454;-83
2022/11/11 20:28:58;;;;;;;33.70;31.00;;;8.60;99.90;;;;;;5940259;23;20409;-78
2022/11/11 20:31:27;;;;;;;33.60;30.80;;;8.30;99.90;;;;;;4930995;29;20544;-79
2022/11/11 20:33:54;;;;;;;35.80;32.47;;;8.20;99.90;;;;;;4933260;29;20532;-79
2022/11/11 20:36:21;;;;;;;35.77;32.67;;;8.20;99.90;;;;;;4933575;29;20465;-78
2022/11/11 20:38:48;;;;;;;33.93;31.00;;;8.20;99.90;;;;;;4933343;29;20453;-76
2022/11/11 20:41:16;;;;;;;33.17;30.17;;;8.10;99.90;;;;;;4931224;29;20943;-78
2022/11/11 20:43:44;;;;;;;36.67;33.33;;;8.20;99.90;;;;;;4932773;29;20445;-79
2022/11/11 20:46:15;;;;;;;34.80;32.00;;;8.20;99.90;;;;;;4932881;29;20466;-79
2022/11/11 20:48:43;;;;;;;35.90;32.83;;;8.10;99.90;;;;;;4932603;29;20574;-79
2022/11/11 20:51:13;;;;;;;35.27;31.93;;;8.10;99.90;;;;;;4932587;29;20453;-78
2022/11/11 20:53:40;;;;;;;34.23;31.33;;;8.10;99.90;;;;;;4932526;29;20453;-80
2022/11/11 20:56:09;;;;;;;36.23;33.03;;;8.10;99.90;;;;;;4933027;29;20516;-79
2022/11/11 20:58:37;;;;;;;34.27;31.30;;;8.00;99.90;;;;;;4932843;29;20489;-80
2022/11/11 21:01:06;;;;;;;34.67;31.20;;;8.00;99.90;;;;;;4932892;29;20473;-80
2022/11/11 21:03:35;;;;;;;35.10;32.00;;;8.00;99.90;;;;;;4932678;29;20446;-80
2022/11/11 21:06:03;;;;;;;36.63;33.27;;;8.00;99.90;;;;;;4932601;29;20449;-79
2022/11/11 21:08:30;;;;;;;32.87;29.87;;;8.00;99.90;;;;;;4932614;29;20446;-78
2022/11/11 21:10:57;;;;;;;33.57;30.17;;;8.00;99.90;;;;;;4932302;29;20457;-79
2022/11/11 21:13:24;;;;;;;33.07;30.17;;;8.00;99.90;;;;;;4932300;29;20462;-79
2022/11/11 21:15:51;;;;;;;32.03;29.33;;;7.90;99.90;;;;;;4932592;29;20457;-80
2022/11/11 21:18:18;;;;;;;33.93;30.40;;;7.90;99.90;;;;;;4932776;29;20489;-78
2022/11/11 21:20:46;;;;;;;33.07;30.23;;;7.90;99.90;;;;;;4932308;29;20473;-79
2022/11/11 21:23:15;;;;;;;34.57;31.57;;;7.90;99.90;;;;;;4932282;29;20456;-78
2022/11/11 21:25:42;;;;;;;33.10;30.30;;;7.90;99.90;;;;;;4932249;29;20457;-78
2022/11/11 21:28:08;;;;;;;33.23;30.40;;;7.90;99.90;;;;;;4936770;29;20469;-79
2022/11/11 21:30:35;;;;;;;32.00;29.37;;;7.90;99.90;;;;;;4932290;29;20474;-78
2022/11/11 21:33:02;;;;;;;31.83;29.33;;;7.90;99.90;;;;;;4932706;29;20469;-79
2022/11/11 21:35:31;;;;;;;32.63;30.13;;;7.90;99.90;;;;;;4932190;29;20556;-79
2022/11/11 21:37:59;;;;;;;32.93;30.27;;;7.90;99.90;;;;;;4932183;29;20519;-79
2022/11/11 21:40:26;;;;;;;31.83;29.33;;;7.90;99.90;;;;;;4932329;29;20460;-79
2022/11/11 21:42:52;;;;;;;33.37;30.63;;;7.80;99.90;;;;;;4932274;29;20948;-79
2022/11/11 21:45:19;;;;;;;31.50;28.93;;;7.80;99.90;;;;;;4932198;29;20470;-78
2022/11/11 21:47:46;;;;;;;34.13;31.47;;;7.80;99.90;;;;;;4932206;29;20453;-78
2022/11/11 21:50:13;;;;;;;35.03;32.23;;;7.80;99.90;;;;;;4932256;29;20454;-79
2022/11/11 21:52:39;;;;;;;30.90;28.60;;;7.80;99.90;;;;;;4932166;29;20952;-79
2022/11/11 21:55:08;;;;;;;33.40;30.70;;;7.70;99.90;;;;;;4932395;29;20449;-78
2022/11/11 21:57:34;;;;;;;33.53;30.77;;;7.70;99.90;;;;;;4932373;29;20485;-79
2022/11/11 22:00:01;;;;;;;32.17;29.67;;;7.70;99.90;;;;;;4931839;29;20947;-79
2022/11/11 22:02:28;;;;;;;33.07;30.57;;;7.60;99.90;;;;;;4932261;29;20536;-79
2022/11/11 22:04:55;;;;;;;33.33;30.47;;;7.60;99.90;;;;;;4932848;29;20449;-79
2022/11/11 22:07:22;;;;;;;34.10;31.20;;;7.50;99.90;;;;;;4936006;29;20445;-82
2022/11/11 22:09:48;;;;;;;35.77;32.73;;;7.60;99.90;;;;;;4936594;29;20454;-82
2022/11/11 22:12:17;;;;;;;35.20;31.90;;;7.50;99.90;;;;;;4936219;29;20453;-83
2022/11/11 22:14:43;;;;;;;34.00;31.10;;;7.50;99.90;;;;;;4936135;29;20453;-82
2022/11/11 22:17:10;;;;;;;33.97;31.00;;;7.50;99.90;;;;;;4936044;29;20500;-81
2022/11/11 22:19:37;;;;;;;33.13;30.33;;;7.50;99.90;;;;;;4936537;29;20978;-80
2022/11/11 22:22:03;;;;;;;34.07;31.30;;;7.40;99.90;;;;;;4936198;29;20453;-81
2022/11/11 22:24:30;;;;;;;33.40;30.80;;;7.40;99.90;;;;;;4935938;29;20467;-81
2022/11/11 22:26:57;;;;;;;33.67;30.90;;;7.40;99.90;;;;;;4935652;29;20461;-80
2022/11/11 22:29:25;;;;;;;33.60;30.83;;;7.40;99.90;;;;;;4935737;29;20492;-80
2022/11/11 22:31:52;;;;;;;34.03;31.10;;;7.40;99.90;;;;;;4936353;29;20456;-81
2022/11/11 22:34:19;;;;;;;32.23;29.37;;;7.40;99.90;;;;;;4936077;29;20977;-84
2022/11/11 22:36:45;;;;;;;31.83;29.33;;;7.40;99.90;;;;;;4935867;29;20947;-84
2022/11/11 22:39:12;;;;;;;32.60;30.20;;;7.30;99.90;;;;;;4936195;29;20827;-83
2022/11/11 22:41:40;;;;;;;32.23;29.60;;;7.30;99.90;;;;;;4936263;29;20465;-85
2022/11/11 22:44:08;;;;;;;32.50;29.93;;;7.30;99.90;;;;;;4936551;29;20534;-83
2022/11/11 22:46:36;;;;;;;32.90;30.40;;;7.30;99.90;;;;;;4936033;29;20457;-85
2022/11/11 22:49:05;;;;;;;32.67;30.07;;;7.20;99.90;;;;;;4935859;29;20661;-84
2022/11/11 22:51:33;;;;;;;32.60;29.83;;;7.10;99.90;;;;;;4935763;29;20941;-82
2022/11/11 22:54:01;;;;;;;32.67;30.23;;;7.10;99.90;;;;;;4935107;29;20460;-81
2022/11/11 22:56:29;;;;;;;33.17;30.67;;;7.10;99.90;;;;;;4935256;29;20454;-80
2022/11/11 22:58:56;;;;;;;35.53;32.23;;;7.10;99.90;;;;;;4934710;29;20488;-81
2022/11/11 23:01:25;;;;;;;33.67;30.83;;;7.10;99.90;;;;;;4935252;29;20498;-81
2022/11/11 23:03:55;;;;;;;32.30;29.33;;;7.10;99.90;;;;;;4935365;29;20454;-81
2022/11/11 23:06:23;;;;;;;31.63;29.20;;;7.10;99.90;;;;;;4933804;29;20450;-83
2022/11/11 23:08:50;;;;;;;32.07;29.30;;;7.10;99.90;;;;;;4935537;29;20843;-82
2022/11/11 23:11:19;;;;;;;31.80;29.03;;;7.10;99.90;;;;;;4935292;29;20457;-82
2022/11/11 23:13:47;;;;;;;31.13;28.83;;;7.10;99.90;;;;;;4934970;29;20449;-83
2022/11/11 23:16:15;;;;;;;30.80;28.20;;;7.10;99.90;;;;;;4935219;29;20462;-83
2022/11/11 23:18:43;;;;;;;33.13;30.00;;;7.10;99.90;;;;;;4934866;29;20489;-83
2022/11/11 23:21:12;;;;;;;33.17;30.47;;;7.00;99.90;;;;;;4934957;29;20951;-82
2022/11/11 23:23:39;;;;;;;35.17;31.90;;;7.00;99.90;;;;;;4934828;29;20465;-81
2022/11/11 23:26:08;;;;;;;37.20;33.60;;;6.90;99.90;;;;;;4935187;29;20955;-81
2022/11/11 23:28:36;;;;;;;33.60;30.80;;;6.90;99.90;;;;;;4934840;29;20473;-81
2022/11/11 23:31:05;;;;;;;35.00;31.80;;;6.90;99.90;;;;;;4934698;29;20496;-82
2022/11/11 23:33:33;;;;;;;34.87;32.00;;;6.90;99.90;;;;;;4934874;29;20471;-82
2022/11/11 23:36:00;;;;;;;34.77;31.90;;;6.80;99.90;;;;;;4934356;29;20469;-81
2022/11/11 23:38:29;;;;;;;36.27;32.97;;;6.80;99.90;;;;;;4934269;29;20583;-81
2022/11/11 23:40:56;;;;;;;34.10;31.20;;;6.80;99.90;;;;;;4934457;29;20456;-81
2022/11/11 23:43:24;;;;;;;32.30;29.60;;;6.70;99.90;;;;;;4936745;29;20453;-80
2022/11/11 23:45:52;;;;;;;34.73;31.50;;;6.70;99.90;;;;;;4938906;29;20820;-80
2022/11/11 23:48:19;;;;;;;33.67;30.87;;;6.70;99.90;;;;;;4936606;29;20445;-78
2022/11/11 23:50:47;;;;;;;34.73;31.80;;;6.70;99.90;;;;;;4936546;29;20957;-80
2022/11/11 23:53:14;;;;;;;33.17;30.43;;;6.70;99.90;;;;;;4936268;29;20548;-80
2022/11/11 23:55:43;;;;;;;35.67;32.60;;;6.70;99.90;;;;;;4934388;29;20462;-79
2022/11/11 23:58:11;;;;;;;33.10;30.30;;;6.70;99.90;;;;;;4933790;29;20496;-80
